Information Last Ob Photographs Meteogram Network Table Neighbors Monthly Summaries Observation History Wind Roses Custom Wind Roses Data Calendar Download

Most Recent Observation

This application displays the last observation received by the IEM from this site. The time stamp is in America/Chicago timezone.

Observation Local Time26 May 2018, 5:54 PM
Observation UTC Time2018-05-26T22:54:00Z
Air Temp [F]93.9
Maximum Air Temperature [F]96
Minimum Air Temperature [F]68
Dew Point [F]62.1
Wind Direction170
Wind Speed [knots]7
Altimeter [inches]29.71
Raw Observation/ProductKDSM 262254Z 17007KT 10SM FEW085 FEW110 34/17 A2971 RMK AO2 SLP050 OCNL LTGIC DSNT SE CB DSNT E-SE MOV SE TCU DSNT S-SW T03440167

This data was provided by a JSON(P) webservice. You can find more JSON services.